createdAt,value
2018-10-18T04:15:56.178Z,3.07
2018-10-18T04:18:30.045Z,3.50
2018-10-18T04:21:04.687Z,2.83
2018-10-18T04:23:39.758Z,3.87
2018-10-18T04:26:15.824Z,3.20
2018-10-18T04:28:58.445Z,3.40
2018-10-18T04:31:35.852Z,2.93
2018-10-18T04:34:14.478Z,3.77
2018-10-18T04:36:50.526Z,3.80
2018-10-18T04:39:27.981Z,4.20
2018-10-18T04:42:05.252Z,3.37
2018-10-18T04:44:49.612Z,3.53
2018-10-18T04:47:30.177Z,3.77
2018-10-18T04:50:13.817Z,4.20
2018-10-18T04:52:48.500Z,3.17
2018-10-18T04:55:26.331Z,2.90
2018-10-18T04:58:06.718Z,4.20
2018-10-18T05:03:19.808Z,3.47
2018-10-18T05:06:04.452Z,3.63
2018-10-18T05:08:37.950Z,2.40
2018-10-18T05:11:14.328Z,4.17
2018-10-18T05:13:47.680Z,3.37
2018-10-18T05:16:26.219Z,4.30
2018-10-18T05:21:37.346Z,5.70
2018-10-18T05:24:11.223Z,3.87
2018-10-18T05:26:57.785Z,3.07
2018-10-18T05:29:36.492Z,5.27
2018-10-18T05:32:08.223Z,5.43
2018-10-18T05:34:39.953Z,3.70
2018-10-18T05:37:10.651Z,5.60
2018-10-18T05:39:43.368Z,4.00
2018-10-18T05:42:14.559Z,2.67
2018-10-18T05:45:09.567Z,3.20
2018-10-18T05:47:45.992Z,4.50
2018-10-18T05:50:26.252Z,3.60
2018-10-18T05:53:02.094Z,5.20
2018-10-18T05:55:39.834Z,3.43
2018-10-18T05:58:20.183Z,4.67
2018-10-18T06:00:56.830Z,4.73
2018-10-18T06:03:29.195Z,5.80
2018-10-18T06:06:04.866Z,3.00
2018-10-18T06:08:39.750Z,2.23
2018-10-18T06:11:34.568Z,4.00
2018-10-18T06:14:16.113Z,3.27
2018-10-18T06:17:00.793Z,3.37
2018-10-18T06:19:33.772Z,4.80
2018-10-18T06:22:06.520Z,3.70
2018-10-18T06:24:40.906Z,5.57
2018-10-18T06:27:19.695Z,4.03
2018-10-18T06:29:57.122Z,3.27
2018-10-18T06:32:29.503Z,4.00
2018-10-18T06:35:10.291Z,3.97
2018-10-18T06:37:43.854Z,3.23
2018-10-18T06:40:15.988Z,4.67
2018-10-18T06:42:52.541Z,3.70
2018-10-18T06:45:31.838Z,2.70
2018-10-18T06:48:09.276Z,2.73
2018-10-18T06:50:40.761Z,4.13
2018-10-18T06:53:10.306Z,3.87
2018-10-18T06:55:52.152Z,2.37
2018-10-18T06:58:37.505Z,3.10
2018-10-18T07:01:15.874Z,3.00
2018-10-18T07:03:46.468Z,3.40
2018-10-18T07:06:31.855Z,3.60
2018-10-18T07:09:03.449Z,3.17
2018-10-18T07:11:42.997Z,2.40
2018-10-18T07:16:59.490Z,2.63
2018-10-18T07:19:37.746Z,2.13
2018-10-18T07:22:14.645Z,2.27
2018-10-18T07:27:32.189Z,3.97
2018-10-18T07:30:07.797Z,3.73
2018-10-18T07:32:44.585Z,2.80
2018-10-18T07:35:25.836Z,1.60
2018-10-18T07:38:02.616Z,3.07
2018-10-18T07:40:46.950Z,2.03
2018-10-18T07:43:29.216Z,1.67
2018-10-18T07:46:07.199Z,4.30
2018-10-18T07:48:39.437Z,3.83
2018-10-18T07:51:16.777Z,2.43
2018-10-18T07:53:58.568Z,3.90
2018-10-18T07:56:35.076Z,1.40
2018-10-18T07:59:09.938Z,2.63
2018-10-18T08:01:51.499Z,2.50
2018-10-18T08:04:28.480Z,3.07
2018-10-18T08:07:07.197Z,3.70
2018-10-18T08:09:43.519Z,2.67
2018-10-18T08:12:19.678Z,3.27
2018-10-18T08:14:57.668Z,3.90
2018-10-18T08:17:29.889Z,3.83
2018-10-18T08:20:10.433Z,2.00
2018-10-18T08:22:45.796Z,2.77
2018-10-18T08:25:27.257Z,2.30
2018-10-18T08:30:52.041Z,3.77
2018-10-18T08:33:29.017Z,2.83
2018-10-18T08:36:04.971Z,2.80
2018-10-18T08:38:41.365Z,2.40
2018-10-18T08:41:22.609Z,2.60
2018-10-18T08:44:11.365Z,4.63
2018-10-18T08:47:00.105Z,3.93
2018-10-18T08:49:54.507Z,2.57
2018-10-18T08:52:34.903Z,3.50
2018-10-18T08:55:13.462Z,4.20
2018-10-18T08:57:48.663Z,3.67
2018-10-18T09:00:18.551Z,1.97
2018-10-18T09:02:49.432Z,3.80
2018-10-18T09:05:33.110Z,2.90
2018-10-18T09:08:14.760Z,2.37
2018-10-18T09:10:52.850Z,2.80
2018-10-18T09:13:35.557Z,3.57
2018-10-18T09:16:06.334Z,2.83
2018-10-18T09:21:42.875Z,2.73
2018-10-18T09:24:12.775Z,2.50
2018-10-18T09:26:42.868Z,4.90
2018-10-18T09:29:21.121Z,4.43
2018-10-18T09:31:59.939Z,3.33
2018-10-18T09:34:36.782Z,2.40
2018-10-18T09:37:06.141Z,4.60
2018-10-18T09:39:35.616Z,4.00
2018-10-18T09:42:06.957Z,4.17
2018-10-18T09:44:37.021Z,2.03
2018-10-18T09:47:08.984Z,2.93
2018-10-18T09:49:39.490Z,1.70
2018-10-18T09:52:10.812Z,3.13
2018-10-18T09:54:41.576Z,2.20
2018-10-18T09:57:13.894Z,3.83
2018-10-18T09:59:44.172Z,3.73
2018-10-18T10:02:19.469Z,3.87
2018-10-18T10:04:49.050Z,3.40
2018-10-18T10:09:45.183Z,2.87
2018-10-18T10:12:16.486Z,2.73
2018-10-18T10:14:47.346Z,2.50
2018-10-18T10:17:17.033Z,3.40
2018-10-18T10:19:54.761Z,3.10
2018-10-18T10:22:39.515Z,4.13
2018-10-18T10:25:11.663Z,1.87
2018-10-18T10:27:48.817Z,2.30
2018-10-18T10:30:23.875Z,5.27
2018-10-18T10:32:55.724Z,2.70
2018-10-18T10:35:29.287Z,2.43
2018-10-18T10:38:02.813Z,3.40
2018-10-18T10:40:36.234Z,2.30
2018-10-18T10:43:12.753Z,4.53
2018-10-18T10:45:42.763Z,3.30
2018-10-18T10:48:12.477Z,2.70
2018-10-18T10:50:48.085Z,2.87
2018-10-18T10:53:22.818Z,3.07
2018-10-18T10:55:53.528Z,2.40
2018-10-18T10:58:25.384Z,3.57
2018-10-18T11:01:13.016Z,3.37
2018-10-18T11:03:44.699Z,3.20
2018-10-18T11:06:19.763Z,2.50
2018-10-18T11:08:49.465Z,2.37
2018-10-18T11:11:27.283Z,2.77
2018-10-18T11:14:06.487Z,3.93
2018-10-18T11:16:47.289Z,1.97
2018-10-18T11:19:20.406Z,2.47
2018-10-18T11:21:55.374Z,2.60
2018-10-18T11:24:26.427Z,2.27
2018-10-18T11:26:56.851Z,2.03
2018-10-18T11:29:28.574Z,1.40
2018-10-18T11:32:06.084Z,2.47
2018-10-18T11:34:35.948Z,2.37
2018-10-18T11:37:09.542Z,2.40
2018-10-18T11:39:42.080Z,3.43
2018-10-18T11:42:13.476Z,2.17
2018-10-18T11:44:48.380Z,1.67
2018-10-18T11:47:21.265Z,2.50
2018-10-18T11:49:54.191Z,2.40
2018-10-18T11:52:26.437Z,1.93
2018-10-18T11:55:09.619Z,2.67
2018-10-18T11:57:47.049Z,2.60
2018-10-18T12:00:20.907Z,1.90
2018-10-18T12:02:52.510Z,2.43
2018-10-18T12:05:25.582Z,2.70
2018-10-18T12:08:00.528Z,1.50
2018-10-18T12:10:39.182Z,3.17
2018-10-18T12:13:20.085Z,2.60
2018-10-18T12:18:15.308Z,2.10
2018-10-18T12:20:47.592Z,1.87
2018-10-18T12:23:21.474Z,2.37
2018-10-18T12:25:53.346Z,2.73
2018-10-18T12:28:22.446Z,2.40
2018-10-18T12:30:51.759Z,2.33
2018-10-18T12:33:29.475Z,1.53
2018-10-18T12:36:04.407Z,1.67
2018-10-18T12:38:34.275Z,2.37
2018-10-18T12:41:05.547Z,2.00
2018-10-18T12:43:46.364Z,3.20
2018-10-18T12:46:21.225Z,2.33
2018-10-18T12:48:54.721Z,1.80
2018-10-18T12:51:23.974Z,2.30
2018-10-18T12:53:55.658Z,3.13
2018-10-18T12:56:31.242Z,2.20
2018-10-18T12:59:03.384Z,3.53
2018-10-18T13:01:39.263Z,1.93
2018-10-18T13:04:13.231Z,2.50
2018-10-18T13:06:47.767Z,2.00
2018-10-18T13:09:22.849Z,1.90
2018-10-18T13:11:59.594Z,2.17
2018-10-18T13:14:36.819Z,1.97
2018-10-18T13:17:10.838Z,2.30
2018-10-18T13:19:42.890Z,1.83
2018-10-18T13:33:18.311Z,2.50
2018-10-18T13:35:49.964Z,2.67
2018-10-18T13:38:19.526Z,3.60
2018-10-18T13:40:49.273Z,2.70
2018-10-18T13:43:19.399Z,2.43
2018-10-18T13:45:50.214Z,3.70
2018-10-18T13:48:20.692Z,2.93
2018-10-18T13:50:52.274Z,2.60
2018-10-18T13:53:25.428Z,2.60
2018-10-18T13:55:54.983Z,2.97
2018-10-18T13:58:30.864Z,3.67
2018-10-18T14:01:01.140Z,2.23
2018-10-18T14:03:31.056Z,2.67
2018-10-18T14:06:02.038Z,2.50
2018-10-18T14:08:31.454Z,3.80
2018-10-18T15:13:18.038Z,2.53
2018-10-18T15:15:47.731Z,2.90
2018-10-18T15:18:18.506Z,1.43
2018-10-18T15:20:47.539Z,1.33
2018-10-18T15:23:22.639Z,2.00
2018-10-18T15:25:56.513Z,1.87
2018-10-18T15:28:34.305Z,2.63
2018-10-18T15:31:06.285Z,1.83
2018-10-18T15:33:38.594Z,1.40
2018-10-18T15:36:09.592Z,1.80
2018-10-18T15:38:42.262Z,2.97
2018-10-18T15:41:13.262Z,2.13
2018-10-18T15:44:02.504Z,1.43
2018-10-18T15:46:31.578Z,1.53
2018-10-18T15:49:03.232Z,1.23
2018-10-18T15:51:34.893Z,1.23
2018-10-18T16:01:03.126Z,2.40
2018-10-18T16:03:35.188Z,1.47
2018-10-18T16:06:06.261Z,1.57
2018-10-18T16:08:36.398Z,1.37
2018-10-18T16:11:06.411Z,1.80
2018-10-18T16:13:37.772Z,2.03
2018-10-18T16:16:08.188Z,2.07
2018-10-18T16:18:38.094Z,1.17
2018-10-18T16:21:07.962Z,1.87
2018-10-18T16:23:37.218Z,1.17
2018-10-18T16:26:07.325Z,1.20
2018-10-18T16:28:37.692Z,2.33
2018-10-18T16:31:08.450Z,1.53
2018-10-18T16:33:37.676Z,0.90
2018-10-18T16:36:07.410Z,2.03
2018-10-18T16:38:37.046Z,1.43
2018-10-18T16:41:07.429Z,1.30
2018-10-18T16:43:43.376Z,1.40
2018-10-18T16:46:12.601Z,0.90
2018-10-18T16:48:42.870Z,1.73
2018-10-18T16:51:12.649Z,1.17
2018-10-18T16:53:42.669Z,1.70
2018-10-18T16:56:14.708Z,1.63
2018-10-18T16:58:51.602Z,1.83
2018-10-18T17:01:24.711Z,1.10
2018-10-18T17:03:54.539Z,1.27
2018-10-18T17:06:25.226Z,1.20
2018-10-18T17:08:56.377Z,1.80
2018-10-18T17:11:25.727Z,0.70
2018-10-18T17:13:55.427Z,0.93
2018-10-18T17:16:27.105Z,1.10
2018-10-18T17:18:56.850Z,0.70
2018-10-18T17:21:27.516Z,0.90
2018-10-18T17:24:07.588Z,1.17
2018-10-18T17:26:39.612Z,1.23
2018-10-18T17:29:09.408Z,1.23
2018-10-18T17:31:39.761Z,1.43
2018-10-18T17:34:09.755Z,0.83
2018-10-18T17:36:41.033Z,1.53
2018-10-18T17:39:12.237Z,1.30
2018-10-18T17:41:41.713Z,0.73
2018-10-18T17:44:13.977Z,1.00
2018-10-18T17:46:47.311Z,1.17
2018-10-18T17:49:22.599Z,1.10
2018-10-18T17:51:52.468Z,0.90
2018-10-18T17:54:34.255Z,1.30
2018-10-18T17:57:09.727Z,1.90
2018-10-18T17:59:41.535Z,1.03
2018-10-18T18:02:14.258Z,0.97
2018-10-18T18:04:52.421Z,0.80
2018-10-18T18:07:22.776Z,0.80
2018-10-18T18:09:59.851Z,1.20
2018-10-18T18:12:34.469Z,1.03
2018-10-18T18:15:36.075Z,1.00
2018-10-18T18:18:20.671Z,0.90
2018-10-18T18:20:52.553Z,1.00
2018-10-18T18:23:31.120Z,0.93
2018-10-18T18:26:17.825Z,1.07
2018-10-18T18:29:08.889Z,0.83
2018-10-18T18:31:43.696Z,1.40
2018-10-18T18:37:14.501Z,0.63
2018-10-18T18:39:49.363Z,0.90
2018-10-18T18:42:30.697Z,1.37
2018-10-18T18:45:17.039Z,0.57
2018-10-18T18:48:03.372Z,0.97
2018-10-18T18:50:49.931Z,0.73
2018-10-18T18:56:19.987Z,1.00
2018-10-18T18:58:53.214Z,1.03
2018-10-18T19:01:32.847Z,1.57
2018-10-18T19:04:09.866Z,0.60
2018-10-18T19:07:24.343Z,1.30
2018-10-18T19:10:03.454Z,0.60
2018-10-18T19:12:49.130Z,0.77
2018-10-18T19:15:23.802Z,1.80
2018-10-18T19:17:58.677Z,0.70
2018-10-18T19:20:34.075Z,0.83
2018-10-18T19:23:10.601Z,1.10
2018-10-18T19:25:40.044Z,1.07
2018-10-18T19:28:12.340Z,0.50
2018-10-18T19:30:44.627Z,0.73
2018-10-18T19:33:14.429Z,1.13
2018-10-18T19:35:50.447Z,1.30
2018-10-18T19:38:31.452Z,0.80
2018-10-18T19:41:04.627Z,0.77
2018-10-18T19:43:38.279Z,1.33
2018-10-18T19:46:16.657Z,0.63
2018-10-18T19:48:54.058Z,0.90
2018-10-18T19:51:27.610Z,0.93
2018-10-18T19:54:00.638Z,1.07
2018-10-18T19:56:35.181Z,0.77
2018-10-18T19:59:06.486Z,1.10
2018-10-18T20:01:45.051Z,0.87
2018-10-18T20:04:21.341Z,0.80
2018-10-18T20:07:01.288Z,0.70
2018-10-18T20:09:32.024Z,0.57
2018-10-18T20:12:02.397Z,1.00
2018-10-18T20:14:33.191Z,1.00
2018-10-18T20:17:07.924Z,1.00
2018-10-18T20:19:40.960Z,0.90
2018-10-18T20:22:15.417Z,0.90
2018-10-18T20:25:00.710Z,0.90
2018-10-18T20:27:38.948Z,0.43
2018-10-18T20:30:16.408Z,0.70
2018-10-18T20:32:51.955Z,0.80
2018-10-18T20:35:21.791Z,0.67
2018-10-18T20:37:56.237Z,0.60
2018-10-18T20:40:29.560Z,1.40
2018-10-18T20:43:06.317Z,1.17
2018-10-18T20:45:38.181Z,0.80
2018-10-18T20:48:22.490Z,0.60
2018-10-18T20:50:55.215Z,1.20
2018-10-18T20:53:25.229Z,0.83
2018-10-18T20:55:56.516Z,0.73
2018-10-18T20:58:26.281Z,0.50
2018-10-18T21:00:55.418Z,0.77
2018-10-18T21:03:26.301Z,1.10
2018-10-18T21:06:01.407Z,0.73
2018-10-18T21:08:37.789Z,1.03
2018-10-18T21:11:09.111Z,0.80
2018-10-18T21:13:48.963Z,0.50
2018-10-18T21:16:25.438Z,1.37
2018-10-18T21:19:00.313Z,0.70
2018-10-18T21:21:41.185Z,0.97
2018-10-18T21:24:15.494Z,0.60
2018-10-18T21:26:54.540Z,0.70
2018-10-18T21:29:37.298Z,0.70
2018-10-18T21:32:21.506Z,0.87
2018-10-18T21:34:55.282Z,0.70
2018-10-18T21:37:40.710Z,1.27
2018-10-18T21:40:19.272Z,0.73
2018-10-18T21:42:54.354Z,1.07
2018-10-18T21:45:32.488Z,0.90
2018-10-18T21:48:09.231Z,0.60
2018-10-18T21:50:52.040Z,0.60
2018-10-18T21:53:25.649Z,0.70
2018-10-18T21:56:04.282Z,0.83
2018-10-18T21:58:40.537Z,0.83
2018-10-18T22:01:14.469Z,0.97
2018-10-18T22:03:54.517Z,0.90
2018-10-18T22:06:24.893Z,1.47
2018-10-18T22:09:02.751Z,0.73
2018-10-18T22:11:34.668Z,0.60
2018-10-18T22:14:12.752Z,0.77
2018-10-18T22:16:47.874Z,0.97
2018-10-18T22:19:25.039Z,0.90
2018-10-18T22:22:02.483Z,1.13
2018-10-18T22:24:37.603Z,0.93
2018-10-18T22:27:10.302Z,0.50
2018-10-18T22:29:40.514Z,1.13
2018-10-18T22:32:15.482Z,0.60
2018-10-18T22:34:49.634Z,0.90
2018-10-18T22:37:26.120Z,0.70
2018-10-18T22:40:05.051Z,0.50
2018-10-18T22:42:37.181Z,1.00
2018-10-18T22:45:10.681Z,0.70
2018-10-18T22:47:45.444Z,0.83
2018-10-18T22:50:20.949Z,0.77
2018-10-18T22:53:03.247Z,1.20
2018-10-18T22:55:33.750Z,0.77
2018-10-18T22:58:06.684Z,0.90
2018-10-18T23:00:38.578Z,1.93
2018-10-18T23:03:12.346Z,0.80
2018-10-18T23:05:49.020Z,0.80
2018-10-18T23:08:20.179Z,1.07
2018-10-18T23:10:52.194Z,1.00
2018-10-18T23:13:23.242Z,1.33
2018-10-18T23:15:52.255Z,0.90
2018-10-18T23:18:23.886Z,1.10
2018-10-18T23:20:57.848Z,0.90
2018-10-18T23:23:27.944Z,1.23
2018-10-18T23:25:58.213Z,1.70
2018-10-18T23:28:33.147Z,0.90
2018-10-18T23:31:04.835Z,1.20
2018-10-18T23:33:35.976Z,0.70
2018-10-18T23:36:06.764Z,1.33
2018-10-18T23:41:17.488Z,1.27
2018-10-18T23:43:47.958Z,1.23
2018-10-18T23:48:47.825Z,0.97
2018-10-18T23:51:25.835Z,1.23
2018-10-18T23:53:56.222Z,0.60
2018-10-18T23:56:28.562Z,1.27
2018-10-18T23:59:06.664Z,0.83
